Ro Fjord — LFEI — position and weather

sailwx.info

Track history (hours):
 
Tides and Currents Weather Stations Pressure Air Temp Water Temp Dewpoint Dewpoint Depression Visibility Wind Speed Wind Dir Waves Ship Positions

Ro Fjord

Last reported at 2015-Apr-19 10:33 UTC. Time now 2015-Apr-22 03:52 UTC.
Position N 59°14' E 005°21'.

Length 72 m; draft 6.4 m.

Type: Cargo ship. MMSI: 257430000.

Date/timePositionNaut miles runAvg speedWind from/ knotsBaromVisibWave heightAir tempDewpointWater temp
2015-Apr-19 10:33N 59°14' E 005°21'8 7.8
2015-Apr-19 09:33N 59°10' E 005°33'10 9.7
2015-Apr-19 08:33N 59°09' E 005°52'0 0.0
2015-Apr-19 07:33N 59°09' E 005°52'0 0.0
2015-Apr-19 06:33N 59°09' E 005°52'1 1.2
2015-Apr-19 05:33N 59°08' E 005°50'7 7.2
2015-Apr-19 04:33N 59°09' E 005°37'7 6.9
2015-Apr-19 03:33N 59°08' E 005°23'6 6.0
2015-Apr-19 02:33N 59°14' E 005°20'1010.0
2015-Apr-19 01:33N 59°23' E 005°17'  
2015-Apr-11 16:33N 59°28' E 005°13'10 9.8
2015-Apr-11 15:33N 59°19' E 005°20'1010.2
2015-Apr-11 14:33N 59°09' E 005°24'10 9.6
2015-Apr-11 13:33N 59°11' E 005°42'7 7.0
2015-Apr-11 12:33N 59°10' E 005°55'0 0.0
2015-Apr-11 11:33N 59°10' E 005°55'0 0.1
2015-Apr-11 10:33N 59°10' E 005°55'1 0.6
2015-Apr-11 09:33N 59°10' E 005°54'9 9.3
2015-Apr-11 08:33N 59°09' E 005°36'9 8.5
2015-Apr-11 07:33N 59°12' E 005°20'1111.2
2015-Apr-11 06:33N 59°23' E 005°18'  
Track history (hours):
 
Tides and Currents Weather Stations Pressure Air Temp Water Temp Dewpoint Dewpoint Depression Visibility Wind Speed Wind Dir Waves Ship Positions

Ro Fjord

Last reported at 2015-Apr-19 10:33 UTC. Time now 2015-Apr-22 03:52 UTC.
Position N 59°14' E 005°21'.

Length 72 m; draft 6.4 m.

Type: Cargo ship. MMSI: 257430000.

Date/timePositionNaut miles runAvg speedWind from/ knotsBaromVisibWave heightAir tempDewpointWater temp
2015-Apr-19 10:33N 59°14' E 005°21'8 7.8
2015-Apr-19 09:33N 59°10' E 005°33'10 9.7
2015-Apr-19 08:33N 59°09' E 005°52'0 0.0
2015-Apr-19 07:33N 59°09' E 005°52'0 0.0
2015-Apr-19 06:33N 59°09' E 005°52'1 1.2
2015-Apr-19 05:33N 59°08' E 005°50'7 7.2
2015-Apr-19 04:33N 59°09' E 005°37'7 6.9
2015-Apr-19 03:33N 59°08' E 005°23'6 6.0
2015-Apr-19 02:33N 59°14' E 005°20'1010.0
2015-Apr-19 01:33N 59°23' E 005°17'  
2015-Apr-11 16:33N 59°28' E 005°13'10 9.8
2015-Apr-11 15:33N 59°19' E 005°20'1010.2
2015-Apr-11 14:33N 59°09' E 005°24'10 9.6
2015-Apr-11 13:33N 59°11' E 005°42'7 7.0
2015-Apr-11 12:33N 59°10' E 005°55'0 0.0
2015-Apr-11 11:33N 59°10' E 005°55'0 0.1
2015-Apr-11 10:33N 59°10' E 005°55'1 0.6
2015-Apr-11 09:33N 59°10' E 005°54'9 9.3
2015-Apr-11 08:33N 59°09' E 005°36'9 8.5
2015-Apr-11 07:33N 59°12' E 005°20'1111.2
2015-Apr-11 06:33N 59°23' E 005°18'  

Dump ship's entire track history